Map

Track Data

SID SEASON NUMBER BASIN SUBBASIN NAME ISO_TIME NATURE LAT LON WMO_WIND WMO_PRES WMO_AGENCY TRACK_TYPE DIST2LAND LANDFALL IFLAG USA_AGENCY USA_ATCF_ID USA_LAT USA_LON USA_RECORD USA_STATUS USA_WIND USA_PRES USA_SSHS USA_R34_NE USA_R34_SE USA_R34_SW USA_R34_NW USA_R50_NE USA_R50_SE USA_R50_SW USA_R50_NW USA_R64_NE USA_R64_SE USA_R64_SW USA_R64_NW USA_POCI USA_ROCI USA_RMW USA_EYE TOKYO_LAT TOKYO_LON TOKYO_GRADE TOKYO_WIND TOKYO_PRES TOKYO_R50_DIR TOKYO_R50_LONG TOKYO_R50_SHORT TOKYO_R30_DIR TOKYO_R30_LONG TOKYO_R30_SHORT TOKYO_LAND CMA_LAT CMA_LON CMA_CAT CMA_WIND CMA_PRES HKO_LAT HKO_LON HKO_CAT HKO_WIND HKO_PRES NEWDELHI_LAT NEWDELHI_LON NEWDELHI_GRADE NEWDELHI_WIND NEWDELHI_PRES NEWDELHI_CI NEWDELHI_DP NEWDELHI_POCI REUNION_LAT REUNION_LON REUNION_TYPE REUNION_WIND REUNION_PRES REUNION_TNUM REUNION_CI REUNION_RMW REUNION_R34_NE REUNION_R34_SE REUNION_R34_SW REUNION_R34_NW REUNION_R50_NE REUNION_R50_SE REUNION_R50_SW REUNION_R50_NW REUNION_R64_NE REUNION_R64_SE REUNION_R64_SW REUNION_R64_NW BOM_LAT BOM_LON BOM_TYPE BOM_WIND BOM_PRES BOM_TNUM BOM_CI BOM_RMW BOM_R34_NE BOM_R34_SE BOM_R34_SW BOM_R34_NW BOM_R50_NE BOM_R50_SE BOM_R50_SW BOM_R50_NW BOM_R64_NE BOM_R64_SE BOM_R64_SW BOM_R64_NW BOM_ROCI BOM_POCI BOM_EYE BOM_POS_METHOD BOM_PRES_METHOD NADI_LAT NADI_LON NADI_CAT NADI_WIND NADI_PRES WELLINGTON_LAT WELLINGTON_LON WELLINGTON_WIND WELLINGTON_PRES DS824_LAT DS824_LON DS824_STAGE DS824_WIND DS824_PRES TD9636_LAT TD9636_LON TD9636_STAGE TD9636_WIND TD9636_PRES TD9635_LAT TD9635_LON TD9635_WIND TD9635_PRES TD9635_ROCI NEUMANN_LAT NEUMANN_LON NEUMANN_CLASS NEUMANN_WIND NEUMANN_PRES MLC_LAT MLC_LON MLC_CLASS MLC_WIND MLC_PRES USA_GUST BOM_GUST BOM_GUST_PER REUNION_GUST REUNION_GUST_PER USA_SEAHGT USA_SEARAD_NE USA_SEARAD_SE USA_SEARAD_SW USA_SEARAD_NW STORM_SPEED STORM_DIR
1986232N15246 1986 84 EP MM ISIS 1986-08-19 18:00:00 TS 15.4000 -114.000 25 hurdat_epa main 938 938 O_________O___ hurdat_epa EP091986 15.4000 -114.000 TD 25 -1 15.4000 -114.000 1 25 10 274
1986232N15246 1986 84 EP MM ISIS 1986-08-19 21:00:00 TS 15.4313 -114.506 main 962 962 P_________P___ EP091986 15.4279 -114.513 TD 25 -1 15.4416 -114.485 1 25 10 276
1986232N15246 1986 84 EP MM ISIS 1986-08-20 00:00:00 TS 15.5000 -115.000 25 hurdat_epa main 979 979 O_________O___ hurdat_epa EP091986 15.5000 -115.000 TD 25 -1 15.5000 -115.000 1 25 10 282
1986232N15246 1986 84 EP MM ISIS 1986-08-20 03:00:00 TS 15.6287 -115.489 main 999 996 P_________P___ EP091986 15.6421 -115.463 TD 27 -1 15.5886 -115.569 1 27 10 285
1986232N15246 1986 84 EP MM ISIS 1986-08-20 06:00:00 TS 15.7764 -116.046 30 hurdat_epa main 1013 1013 O_________P___ hurdat_epa EP091986 15.8000 -116.000 TD 30 -1 15.7054 -116.185 1 30 12 282
1986232N15246 1986 84 EP MM ISIS 1986-08-20 09:00:00 TS 15.8807 -116.754 main 1058 1058 P_________P___ EP091986 15.8927 -116.728 TD 32 -1 15.8445 -116.834 1 32 14 279
1986232N15246 1986 84 EP MM ISIS 1986-08-20 12:00:00 TS 16.0000 -117.500 35 hurdat_epa main 1101 1101 O_________O___ hurdat_epa EP091986 16.0000 -117.500 TS 35 0 16.0000 -117.500 2 35 14 283
1986232N15246 1986 84 EP MM ISIS 1986-08-20 15:00:00 TS 16.1811 -118.158 main 1139 1139 P_________P___ EP091986 16.1921 -118.157 TS 35 0 16.1480 -118.161 2 37 13 287
1986232N15246 1986 84 EP MM ISIS 1986-08-20 18:00:00 TS 16.3780 -118.809 35 hurdat_epa main 1160 1160 O_________P___ hurdat_epa EP091986 16.4000 -118.800 TS 35 0 16.3119 -118.836 2 40 13 285
1986232N15246 1986 84 EP MM ISIS 1986-08-20 21:00:00 TS 16.5361 -119.499 main 1196 1194 P_________P___ EP091986 16.5498 -119.493 TS 40 0 16.4949 -119.517 2 42 14 284
1986232N15246 1986 84 EP MM ISIS 1986-08-21 00:00:00 TS 16.7000 -120.200 45 hurdat_epa main 1228 1228 O_________O___ hurdat_epa EP091986 16.7000 -120.200 TS 45 0 16.7000 -120.200 2 45 14 285
1986232N15246 1986 84 EP MM ISIS 1986-08-21 03:00:00 TS 16.8870 -120.904 main 1263 1263 P_________P___ EP091986 16.8773 -120.908 TS 45 0 16.9160 -120.891 2 45 14 287
1986232N15246 1986 84 EP MM ISIS 1986-08-21 06:00:00 TS 17.1137 -121.595 45 hurdat_epa main 1300 1300 O_________P___ hurdat_epa EP091986 17.1000 -121.600 TS 45 0 17.1547 -121.580 2 45 14 291
1986232N15246 1986 84 EP MM ISIS 1986-08-21 09:00:00 TS 17.3870 -122.262 main 1333 1333 P_________P___ EP091986 17.3773 -122.265 TS 45 0 17.4160 -122.254 2 45 14 295
1986232N15246 1986 84 EP MM ISIS 1986-08-21 12:00:00 TS 17.7000 -122.900 45 hurdat_epa main 1362 1362 O_________O___ hurdat_epa EP091986 17.7000 -122.900 TS 45 0 17.7000 -122.900 2 45 14 299
1986232N15246 1986 84 EP MM ISIS 1986-08-21 15:00:00 TS 18.0369 -123.511 main 1387 1379 P_________P___ EP091986 18.0498 -123.515 TS 45 0 17.9983 -123.500 2 43 13 301
1986232N15246 1986 84 EP MM ISIS 1986-08-21 18:00:00 TS 18.3797 -124.093 45 hurdat_epa main 1394 1392 O_________P___ hurdat_epa EP091986 18.4000 -124.100 TS 45 0 18.3186 -124.073 2 42 13 301
1986232N15246 1986 84 EP MM ISIS 1986-08-21 21:00:00 TS 18.6884 -124.647 main 1403 1403 P_________P___ EP091986 18.6997 -124.650 TS 42 0 18.6546 -124.635 2 41 12 301
1986232N15246 1986 84 EP MM ISIS 1986-08-22 00:00:00 TS 19.0000 -125.200 40 hurdat_epa main 1423 1422 O_________O___ hurdat_epa EP091986 19.0000 -125.200 TS 40 0 19.0000 -125.200 2 40 13 301
1986232N15246 1986 84 EP MM ISIS 1986-08-22 03:00:00 TS 19.3443 -125.791 main 1445 1437 P_________P___ EP091986 19.3424 -125.793 TS 42 0 19.3503 -125.785 2 41 13 302
1986232N15246 1986 84 EP MM ISIS 1986-08-22 06:00:00 TS 19.7016 -126.395 45 hurdat_epa main 1463 1463 O_________P___ hurdat_epa EP091986 19.7000 -126.400 TS 45 0 19.7065 -126.378 2 42 13 302
1986232N15246 1986 84 EP MM ISIS 1986-08-22 09:00:00 TS 20.0578 -126.990 main 1484 1484 P_________P___ EP091986 20.0572 -126.993 TS 45 0 20.0596 -126.982 2 43 13 302
1986232N15246 1986 84 EP MM ISIS 1986-08-22 12:00:00 TS 20.4000 -127.600 45 hurdat_epa main 1515 1515 O_________O___ hurdat_epa EP091986 20.4000 -127.600 TS 45 0 20.4000 -127.600 2 45 13 299
1986232N15246 1986 84 EP MM ISIS 1986-08-22 15:00:00 TS 20.7170 -128.239 main 1548 1548 P_________P___ EP091986 20.7073 -128.243 TS 45 0 20.7462 -128.227 2 43 14 297
1986232N15246 1986 84 EP MM ISIS 1986-08-22 18:00:00 TS 21.0185 -128.892 45 hurdat_epa main 1592 1592 O_________P___ hurdat_epa EP091986 21.0000 -128.900 TS 45 0 21.0740 -128.870 2 42 14 297
1986232N15246 1986 84 EP MM ISIS 1986-08-22 21:00:00 TS 21.3272 -129.539 main 1629 1629 P_________P___ EP091986 21.3147 -129.543 TS 42 0 21.3648 -129.527 2 41 14 296
1986232N15246 1986 84 EP MM ISIS 1986-08-23 00:00:00 TS 21.6000 -130.200 40 hurdat_epa main 1677 1677 O_________O___ hurdat_epa EP091986 21.6000 -130.200 TS 40 0 21.6000 -130.200 2 40 14 292
1986232N15246 1986 84 EP MM ISIS 1986-08-23 03:00:00 TS 21.8362 -130.898 main 1732 1730 P_________P___ EP091986 21.8448 -130.892 TS 37 0 21.8105 -130.914 2 37 14 287
1986232N15246 1986 84 EP MM ISIS 1986-08-23 06:00:00 TS 21.9895 -131.609 35 hurdat_epa main 1757 1757 O_________P___ hurdat_epa EP091986 22.0000 -131.600 TS 35 0 21.9578 -131.637 2 35 13 279
1986232N15246 1986 84 EP MM ISIS 1986-08-23 09:00:00 TS 22.0515 -132.327 main 1791 1791 P_________P___ EP091986 22.0600 -132.323 TS 32 -1 22.0262 -132.341 2 32 13 270
1986232N15246 1986 84 EP MM ISIS 1986-08-23 12:00:00 TS 22.0000 -133.000 30 hurdat_epa main 1844 1844 O_________O___ hurdat_epa EP091986 22.0000 -133.000 TD 30 -1 22.0000 -133.000 1 30 12 260
1986232N15246 1986 84 EP MM ISIS 1986-08-23 15:00:00 TS 21.8457 -133.583 main 1900 1900 P_________P___ EP091986 21.8371 -133.580 TD 27 -1 21.8712 -133.592 1 28 11 249
1986232N15246 1986 84 EP MM ISIS 1986-08-23 18:00:00 TS 21.6150 -134.107 25 hurdat_epa main 1950 1950 O_________P___ hurdat_epa EP091986 21.6000 -134.100 TD 25 -1 21.6602 -134.127 1 27 11 243
1986232N15246 1986 84 EP MM ISIS 1986-08-23 21:00:00 TS 21.3613 -134.608 main 2001 2001 P_________P___ EP091986 21.3504 -134.603 TD 25 -1 21.3941 -134.624 1 26 11 241
1986232N15246 1986 84 EP MM ISIS 1986-08-24 00:00:00 TS 21.1000 -135.100 25 hurdat_epa main 2060 O_________O___ hurdat_epa EP091986 21.1000 -135.100 TD 25 -1 21.1000 -135.100 1 25 11 240

About IBTrACS Database

This database is a web-friendly format of International Best Track Archive for Climate Stewardship (IBTrACS), a global best track data archive curated by NOAA dating back to 1842.

Updated: 2021-10-19